createdAt,value
2023-02-03T00:02:05.983Z,5.60
2023-02-03T00:04:33.183Z,5.60
2023-02-03T00:07:00.356Z,5.70
2023-02-03T00:09:27.584Z,5.60
2023-02-03T00:11:54.900Z,5.60
2023-02-03T00:14:22.084Z,5.60
2023-02-03T00:16:49.325Z,5.60
2023-02-03T00:19:17.663Z,5.60
2023-02-03T00:21:45.385Z,5.60
2023-02-03T00:24:12.663Z,5.60
2023-02-03T00:26:56.222Z,5.60
2023-02-03T00:29:26.628Z,5.60
2023-02-03T00:31:54.756Z,5.60
2023-02-03T00:34:22.504Z,5.60
2023-02-03T00:36:49.754Z,5.70
2023-02-03T00:39:17.053Z,5.70
2023-02-03T00:41:44.254Z,5.70
2023-02-03T00:44:11.434Z,5.70
2023-02-03T00:46:38.984Z,5.70
2023-02-03T00:49:06.856Z,5.70
2023-02-03T00:51:35.111Z,5.70
2023-02-03T00:54:02.286Z,5.70
2023-02-03T00:56:29.394Z,5.80
2023-02-03T00:58:56.485Z,5.80
2023-02-03T01:01:23.614Z,5.80
2023-02-03T01:03:50.833Z,5.80
2023-02-03T01:06:21.951Z,5.90
2023-02-03T01:08:49.849Z,6.00
2023-02-03T01:11:25.099Z,6.10
2023-02-03T01:13:55.190Z,6.10
2023-02-03T01:16:24.504Z,6.10
2023-02-03T01:18:52.079Z,6.20
2023-02-03T01:21:24.358Z,6.10
2023-02-03T01:23:53.050Z,6.10
2023-02-03T01:26:22.883Z,6.10
2023-02-03T01:28:58.914Z,6.10
2023-02-03T01:31:30.735Z,6.10
2023-02-03T01:33:58.915Z,6.10
2023-02-03T01:36:28.676Z,6.10
2023-02-03T01:38:56.169Z,6.00
2023-02-03T01:41:28.063Z,6.00
2023-02-03T01:43:58.160Z,6.10
2023-02-03T01:46:44.812Z,6.10
2023-02-03T01:49:27.445Z,6.10
2023-02-03T01:51:55.183Z,6.10
2023-02-03T01:54:41.286Z,6.10
2023-02-03T01:57:21.048Z,6.10
2023-02-03T01:59:50.093Z,6.10
2023-02-03T02:02:17.325Z,6.00
2023-02-03T02:04:55.441Z,6.10
2023-02-03T02:07:24.121Z,6.10
2023-02-03T02:09:51.364Z,6.10
2023-02-03T02:12:18.557Z,6.00
2023-02-03T02:14:47.449Z,6.00
2023-02-03T02:17:57.391Z,6.10
2023-02-03T02:20:45.640Z,6.10
2023-02-03T02:23:34.190Z,6.10
2023-02-03T02:26:35.922Z,6.00
2023-02-03T02:29:43.548Z,6.00
2023-02-03T02:32:35.274Z,6.00
2023-02-03T02:35:29.678Z,6.00
2023-02-03T02:38:30.665Z,6.00
2023-02-03T02:41:19.321Z,6.10
2023-02-03T02:44:14.761Z,6.00
2023-02-03T02:46:50.109Z,6.00
2023-02-03T02:49:31.057Z,6.00
2023-02-03T02:52:03.988Z,6.00
2023-02-03T02:54:35.966Z,6.00
2023-02-03T02:57:06.617Z,6.00
2023-02-03T02:59:33.748Z,6.00
2023-02-03T03:02:01.019Z,6.00
2023-02-03T03:04:33.578Z,6.00
2023-02-03T03:07:07.581Z,5.90
2023-02-03T03:09:40.992Z,5.90
2023-02-03T03:12:32.187Z,5.90
2023-02-03T03:15:08.987Z,5.90
2023-02-03T03:18:00.755Z,5.90
2023-02-03T03:20:28.977Z,5.90
2023-02-03T03:23:29.143Z,5.90
2023-02-03T03:26:09.223Z,5.90
2023-02-03T03:28:49.702Z,5.80
2023-02-03T03:31:21.796Z,5.80
2023-02-03T03:33:49.297Z,5.90
2023-02-03T03:36:27.832Z,5.80
2023-02-03T03:39:09.993Z,5.80
2023-02-03T03:42:02.428Z,5.70
2023-02-03T03:44:55.063Z,5.70
2023-02-03T03:47:33.244Z,5.60
2023-02-03T03:50:03.585Z,5.60
2023-02-03T03:52:34.971Z,5.50
2023-02-03T03:55:07.301Z,5.50
2023-02-03T03:57:54.957Z,5.50
2023-02-03T04:00:27.740Z,5.50
2023-02-03T04:02:57.505Z,5.50
2023-02-03T04:05:25.524Z,5.50
2023-02-03T04:07:52.669Z,5.40
2023-02-03T04:10:35.770Z,5.50
2023-02-03T04:13:04.256Z,5.50
2023-02-03T04:15:31.896Z,5.40
2023-02-03T04:18:01.521Z,5.40
2023-02-03T04:20:33.240Z,5.40
2023-02-03T04:23:00.670Z,5.40
2023-02-03T04:25:27.923Z,5.40
2023-02-03T04:27:56.060Z,5.40
2023-02-03T04:30:23.638Z,5.40
2023-02-03T04:32:54.197Z,5.50
2023-02-03T04:35:21.735Z,5.50
2023-02-03T04:37:48.955Z,5.40
2023-02-03T04:40:16.386Z,5.40
2023-02-03T04:42:43.525Z,5.40
2023-02-03T04:45:12.590Z,5.40
2023-02-03T04:47:40.581Z,5.40
2023-02-03T04:50:08.456Z,5.40
2023-02-03T04:52:35.540Z,5.40
2023-02-03T04:55:04.141Z,5.40
2023-02-03T04:57:31.678Z,5.50
2023-02-03T04:59:58.826Z,5.50
2023-02-03T05:02:26.021Z,5.40
2023-02-03T05:04:53.468Z,5.50
2023-02-03T05:07:21.562Z,5.50
2023-02-03T05:09:48.651Z,5.50
2023-02-03T05:12:15.767Z,5.50
2023-02-03T05:14:42.877Z,5.50
2023-02-03T05:17:10.211Z,5.40
2023-02-03T05:19:37.383Z,5.40
2023-02-03T05:22:04.695Z,5.40
2023-02-03T05:24:31.813Z,5.50
2023-02-03T05:26:58.904Z,5.40
2023-02-03T05:29:26.002Z,5.40
2023-02-03T05:31:53.240Z,5.40
2023-02-03T05:34:20.504Z,5.40
2023-02-03T05:36:47.672Z,5.40
2023-02-03T05:39:14.795Z,5.40
2023-02-03T05:41:56.454Z,5.40
2023-02-03T05:44:28.040Z,5.40
2023-02-03T05:46:59.740Z,5.50
2023-02-03T05:49:26.844Z,5.50
2023-02-03T05:51:55.358Z,5.50
2023-02-03T05:54:22.934Z,5.60
2023-02-03T05:56:50.198Z,5.60
2023-02-03T05:59:17.644Z,5.70
2023-02-03T06:01:44.945Z,5.80
2023-02-03T06:04:12.209Z,5.90
2023-02-03T06:06:39.396Z,6.00
2023-02-03T06:09:08.868Z,6.00
2023-02-03T06:11:37.033Z,6.00
2023-02-03T06:14:04.931Z,6.10
2023-02-03T06:16:32.157Z,6.10
2023-02-03T06:19:00.974Z,6.00
2023-02-03T06:21:28.566Z,6.00
2023-02-03T06:23:56.736Z,6.00
2023-02-03T06:26:25.215Z,6.00
2023-02-03T06:28:52.533Z,6.00
2023-02-03T06:31:19.726Z,6.00
2023-02-03T06:33:46.841Z,6.00
2023-02-03T06:36:13.979Z,6.10
2023-02-03T06:38:41.076Z,6.10
2023-02-03T06:41:08.214Z,6.10
2023-02-03T06:43:35.713Z,6.10
2023-02-03T06:46:02.923Z,6.10
2023-02-03T06:48:30.110Z,6.00
2023-02-03T06:50:57.244Z,6.10
2023-02-03T06:53:24.371Z,6.10
2023-02-03T06:55:51.424Z,6.10
2023-02-03T06:58:19.715Z,6.20
2023-02-03T07:00:46.845Z,6.30
2023-02-03T07:03:14.084Z,6.20
2023-02-03T07:05:41.199Z,6.20
2023-02-03T07:08:08.383Z,6.30
2023-02-03T07:10:35.436Z,6.30
2023-02-03T07:13:07.129Z,6.30
2023-02-03T07:15:35.628Z,6.50
2023-02-03T07:18:02.904Z,6.50
2023-02-03T07:20:30.613Z,6.40
2023-02-03T07:22:58.874Z,6.50
2023-02-03T07:25:27.329Z,6.50
2023-02-03T07:27:54.953Z,6.50
2023-02-03T07:30:22.543Z,6.50
2023-02-03T07:32:52.613Z,6.60
2023-02-03T07:35:20.138Z,6.60
2023-02-03T07:37:47.491Z,6.60
2023-02-03T07:40:15.251Z,6.60
2023-02-03T07:42:44.176Z,6.60
2023-02-03T07:45:12.266Z,6.60
2023-02-03T07:47:40.516Z,6.60
2023-02-03T07:50:08.850Z,6.60
2023-02-03T07:52:35.975Z,6.60
2023-02-03T07:55:03.389Z,6.60
2023-02-03T07:57:30.627Z,6.50
2023-02-03T07:59:57.723Z,6.50
2023-02-03T08:02:25.037Z,6.40
2023-02-03T08:04:52.323Z,6.40
2023-02-03T08:07:19.513Z,6.40
2023-02-03T08:09:46.611Z,6.30
2023-02-03T08:12:14.098Z,6.30
2023-02-03T08:14:41.265Z,6.20
2023-02-03T08:17:08.326Z,6.20
2023-02-03T08:19:35.456Z,6.20
2023-02-03T08:22:02.586Z,6.20
2023-02-03T08:24:29.765Z,6.20
2023-02-03T08:26:56.940Z,6.20
2023-02-03T08:29:25.203Z,6.20
2023-02-03T08:31:52.464Z,6.20
2023-02-03T08:34:19.664Z,6.20
2023-02-03T08:36:46.871Z,6.30
2023-02-03T08:39:13.998Z,6.30
2023-02-03T08:41:41.210Z,6.30
2023-02-03T08:44:08.475Z,6.30
2023-02-03T08:46:36.476Z,6.30
2023-02-03T08:49:03.786Z,6.40
2023-02-03T08:51:30.928Z,6.50
2023-02-03T08:53:58.105Z,6.60
2023-02-03T08:56:26.586Z,6.60
2023-02-03T08:58:55.962Z,6.60
2023-02-03T09:01:23.214Z,6.70
2023-02-03T09:03:50.468Z,6.80
2023-02-03T09:06:17.730Z,6.80
2023-02-03T09:08:46.418Z,6.90
2023-02-03T09:11:17.266Z,7.00
2023-02-03T09:13:48.789Z,7.00
2023-02-03T09:16:18.446Z,7.00
2023-02-03T09:18:46.671Z,7.10
2023-02-03T09:21:32.143Z,7.10
2023-02-03T09:24:04.318Z,7.10
2023-02-03T09:26:31.670Z,7.20
2023-02-03T09:28:58.821Z,7.20
2023-02-03T09:31:25.944Z,7.20
2023-02-03T09:33:53.140Z,7.30
2023-02-03T09:36:21.254Z,7.20
2023-02-03T09:38:48.407Z,7.20
2023-02-03T09:41:44.323Z,7.30
2023-02-03T09:44:36.168Z,7.30
2023-02-03T09:47:22.457Z,7.30
2023-02-03T09:50:06.477Z,7.30
2023-02-03T09:52:39.898Z,7.30
2023-02-03T09:55:41.953Z,7.30
2023-02-03T09:58:21.159Z,7.40
2023-02-03T10:00:53.483Z,7.50
2023-02-03T10:03:42.142Z,7.40
2023-02-03T10:06:37.895Z,7.60
2023-02-03T10:09:20.491Z,7.50
2023-02-03T10:12:15.345Z,7.60
2023-02-03T10:15:39.793Z,7.60
2023-02-03T10:18:19.470Z,7.70
2023-02-03T10:20:55.540Z,7.80
2023-02-03T10:23:37.188Z,7.90
2023-02-03T10:26:10.851Z,7.90
2023-02-03T10:28:46.273Z,7.90
2023-02-03T10:31:20.882Z,7.80
2023-02-03T10:34:00.795Z,7.80
2023-02-03T10:36:54.263Z,7.80
2023-02-03T10:39:45.176Z,7.70
2023-02-03T10:42:13.530Z,7.70
2023-02-03T10:44:54.500Z,7.70
2023-02-03T10:47:42.898Z,7.70
2023-02-03T10:50:20.062Z,7.70
2023-02-03T10:52:47.493Z,7.70
2023-02-03T10:55:31.720Z,7.70
2023-02-03T10:58:07.140Z,7.60
2023-02-03T11:00:36.281Z,7.60
2023-02-03T11:03:27.129Z,7.70
2023-02-03T11:06:16.382Z,7.80
2023-02-03T11:08:51.401Z,7.80
2023-02-03T11:11:32.639Z,7.80
2023-02-03T11:14:02.855Z,7.80
2023-02-03T11:16:33.662Z,7.70
2023-02-03T11:19:14.466Z,7.80
2023-02-03T11:21:47.989Z,7.90
2023-02-03T11:24:32.641Z,7.90
2023-02-03T11:27:07.106Z,7.90
2023-02-03T11:29:47.699Z,7.90
2023-02-03T11:32:21.954Z,7.80
2023-02-03T11:35:01.373Z,7.70
2023-02-03T11:37:42.100Z,7.70
2023-02-03T11:40:11.054Z,7.70
2023-02-03T11:42:44.194Z,7.50
2023-02-03T11:45:44.590Z,7.30
2023-02-03T11:48:33.404Z,7.20
2023-02-03T11:51:21.729Z,7.10
2023-02-03T11:54:01.608Z,7.00
2023-02-03T11:57:02.529Z,7.00
2023-02-03T12:00:22.582Z,6.90
2023-02-03T12:03:12.723Z,6.90
2023-02-03T12:06:04.480Z,6.90
2023-02-03T12:08:43.433Z,6.90
2023-02-03T12:11:13.191Z,6.90
2023-02-03T12:14:01.033Z,6.90
2023-02-03T12:17:07.612Z,7.00
2023-02-03T12:20:42.400Z,7.00
2023-02-03T12:23:29.128Z,7.10
2023-02-03T12:26:17.374Z,7.10
2023-02-03T12:28:58.913Z,7.20
2023-02-03T12:31:32.797Z,7.20
2023-02-03T12:34:23.241Z,7.30
2023-02-03T12:37:22.112Z,7.30
2023-02-03T12:39:54.454Z,7.30
2023-02-03T12:42:44.427Z,7.40
2023-02-03T12:45:39.113Z,7.50
2023-02-03T12:48:23.087Z,7.50
2023-02-03T12:50:56.877Z,7.50
2023-02-03T12:53:40.010Z,7.60
2023-02-03T12:56:15.698Z,7.70
2023-02-03T12:59:02.470Z,7.70
2023-02-03T13:01:38.291Z,7.80
2023-02-03T13:04:15.955Z,7.70
2023-02-03T13:07:21.726Z,7.70
2023-02-03T13:09:55.470Z,7.70
2023-02-03T13:12:30.055Z,7.70
2023-02-03T13:15:19.406Z,7.70
2023-02-03T13:18:00.804Z,7.80
2023-02-03T13:20:31.596Z,7.80
2023-02-03T13:22:58.926Z,7.70
2023-02-03T13:25:47.595Z,7.70
2023-02-03T13:28:45.062Z,7.70
2023-02-03T13:31:43.131Z,7.70
2023-02-03T13:34:53.320Z,7.80
2023-02-03T13:38:02.131Z,7.70
2023-02-03T13:40:48.756Z,7.70
2023-02-03T13:43:37.348Z,7.80
2023-02-03T13:46:09.583Z,7.80
2023-02-03T13:48:37.801Z,7.80
2023-02-03T13:51:23.183Z,7.90
2023-02-03T13:53:53.281Z,7.80
2023-02-03T13:56:24.275Z,7.80
2023-02-03T13:59:45.397Z,7.80
2023-02-03T14:02:27.048Z,7.80
2023-02-03T14:04:57.552Z,7.80
2023-02-03T14:07:34.332Z,7.80
2023-02-03T14:10:13.405Z,7.80
2023-02-03T14:12:52.507Z,7.80
2023-02-03T14:15:32.961Z,7.80
2023-02-03T14:18:04.307Z,7.80
2023-02-03T14:20:42.604Z,7.80
2023-02-03T14:23:27.125Z,7.80
2023-02-03T14:26:00.434Z,7.80
2023-02-03T14:28:43.576Z,7.90
2023-02-03T14:31:23.638Z,7.90
2023-02-03T14:34:05.517Z,7.90
2023-02-03T14:36:44.725Z,7.90
2023-02-03T14:39:17.974Z,7.90
2023-02-03T14:42:02.934Z,7.90
2023-02-03T14:44:51.722Z,8.00
2023-02-03T14:48:09.894Z,8.00
2023-02-03T14:51:16.995Z,8.00
2023-02-03T14:53:52.691Z,7.90
2023-02-03T14:57:25.678Z,7.90
2023-02-03T15:00:27.620Z,7.90
2023-02-03T15:03:09.848Z,8.00
2023-02-03T15:05:43.399Z,8.00
2023-02-03T15:08:48.608Z,8.00
2023-02-03T15:11:31.781Z,8.00
2023-02-03T15:14:20.678Z,8.00
2023-02-03T15:16:55.104Z,7.90
2023-02-03T15:19:27.478Z,7.90
2023-02-03T15:21:54.803Z,8.00
2023-02-03T15:24:24.051Z,7.90
2023-02-03T15:26:56.740Z,7.90
2023-02-03T15:29:33.369Z,7.80
2023-02-03T15:32:17.025Z,7.90
2023-02-03T15:34:50.433Z,7.90
2023-02-03T15:37:21.305Z,7.90
2023-02-03T15:40:04.817Z,7.80
2023-02-03T15:42:52.874Z,7.80
2023-02-03T15:45:32.628Z,7.80
2023-02-03T15:48:15.661Z,7.80
2023-02-03T15:50:53.758Z,7.80
2023-02-03T15:53:47.629Z,7.80
2023-02-03T15:56:38.775Z,7.70
2023-02-03T15:59:15.519Z,7.70
2023-02-03T16:01:42.665Z,7.70
2023-02-03T16:04:12.537Z,7.70
2023-02-03T16:06:43.737Z,7.70
2023-02-03T16:09:48.518Z,7.70
2023-02-03T16:12:32.774Z,7.60
2023-02-03T16:15:02.002Z,7.60
2023-02-03T16:17:30.674Z,7.50
2023-02-03T16:20:12.928Z,7.50
2023-02-03T16:22:46.464Z,7.50
2023-02-03T16:25:28.090Z,7.50
2023-02-03T16:28:31.804Z,7.60
2023-02-03T16:31:31.481Z,7.50
2023-02-03T16:34:20.177Z,7.50
2023-02-03T16:37:06.563Z,7.50
2023-02-03T16:39:52.117Z,7.50
2023-02-03T16:42:39.921Z,7.60
2023-02-03T16:45:36.568Z,7.60
2023-02-03T16:48:23.163Z,7.70
2023-02-03T16:50:58.118Z,7.60
2023-02-03T16:53:33.289Z,7.60
2023-02-03T16:56:04.552Z,7.70
2023-02-03T16:58:32.041Z,7.70
2023-02-03T17:01:02.984Z,7.70
2023-02-03T17:03:32.855Z,7.80
2023-02-03T17:06:08.876Z,7.70
2023-02-03T17:08:37.452Z,7.70
2023-02-03T17:11:13.533Z,7.60
2023-02-03T17:13:40.607Z,7.70
2023-02-03T17:16:17.866Z,7.70
2023-02-03T17:18:46.514Z,7.80
2023-02-03T17:21:17.470Z,7.70
2023-02-03T17:23:46.821Z,7.70
2023-02-03T17:26:13.910Z,7.70
2023-02-03T17:28:43.188Z,7.60
2023-02-03T17:31:19.104Z,7.60
2023-02-03T17:33:51.760Z,7.60
2023-02-03T17:36:21.971Z,7.60
2023-02-03T17:55:25.976Z,7.60
2023-02-03T17:57:53.132Z,7.60
2023-02-03T18:00:20.681Z,7.60
2023-02-03T18:02:53.737Z,7.60
2023-02-03T18:05:20.903Z,7.50
2023-02-03T18:10:16.370Z,7.50
2023-02-03T18:12:43.701Z,7.60
2023-02-03T18:15:10.815Z,7.60
2023-02-03T18:17:37.981Z,7.60
2023-02-03T18:20:05.587Z,7.60
2023-02-03T18:22:34.597Z,7.50
2023-02-03T18:25:01.743Z,7.50
2023-02-03T18:27:28.850Z,7.50
2023-02-03T18:29:55.981Z,7.40
2023-02-03T18:32:23.215Z,7.40
2023-02-03T18:34:50.284Z,7.40
2023-02-03T18:37:17.359Z,7.40
2023-02-03T18:39:47.836Z,7.40
2023-02-03T18:42:15.206Z,7.40
2023-02-03T18:44:44.154Z,7.40
2023-02-03T18:47:11.319Z,7.40
2023-02-03T18:49:39.399Z,7.40
2023-02-03T18:52:07.140Z,7.40
2023-02-03T18:54:34.526Z,7.40
2023-02-03T18:57:03.022Z,7.40
2023-02-03T18:59:30.238Z,7.40
2023-02-03T19:01:57.368Z,7.40
2023-02-03T19:04:24.438Z,7.30
2023-02-03T19:06:55.650Z,7.30
2023-02-03T19:09:23.902Z,7.30
2023-02-03T19:11:52.680Z,7.20
2023-02-03T19:14:20.254Z,7.20
2023-02-03T19:16:50.478Z,7.20
2023-02-03T19:19:17.723Z,7.10
2023-02-03T19:21:45.491Z,7.20
2023-02-03T19:24:14.215Z,7.20
2023-02-03T19:26:41.805Z,7.20
2023-02-03T19:29:09.145Z,7.20
2023-02-03T19:31:36.795Z,7.20
2023-02-03T19:34:04.012Z,7.20
2023-02-03T19:36:31.648Z,7.20
2023-02-03T19:38:58.865Z,7.10
2023-02-03T19:41:27.212Z,7.00
2023-02-03T19:43:54.367Z,7.00
2023-02-03T19:46:22.311Z,7.00
2023-02-03T19:48:50.457Z,7.00
2023-02-03T19:51:18.087Z,7.00
2023-02-03T19:53:45.218Z,6.90
2023-02-03T19:56:13.664Z,7.00
2023-02-03T19:58:40.777Z,7.00
2023-02-03T20:01:07.943Z,7.00
2023-02-03T20:03:36.102Z,7.00
2023-02-03T20:06:04.084Z,7.00
2023-02-03T20:08:31.185Z,7.00
2023-02-03T20:10:58.290Z,7.00
2023-02-03T20:13:25.451Z,7.00
2023-02-03T20:15:52.589Z,7.10
2023-02-03T20:18:19.841Z,7.10
2023-02-03T20:20:55.398Z,7.00
2023-02-03T20:23:23.988Z,7.00
2023-02-03T20:25:53.052Z,7.00
2023-02-03T20:28:21.557Z,7.00
2023-02-03T20:30:52.747Z,7.00
2023-02-03T20:33:21.351Z,7.00
2023-02-03T20:35:51.447Z,7.00
2023-02-03T20:38:18.837Z,7.00
2023-02-03T20:40:46.297Z,7.00
2023-02-03T20:43:26.190Z,7.00
2023-02-03T20:45:54.532Z,7.00
2023-02-03T20:48:25.624Z,7.00
2023-02-03T20:50:53.336Z,7.00
2023-02-03T20:53:26.524Z,7.00
2023-02-03T20:56:00.172Z,7.00
2023-02-03T20:58:32.553Z,7.00
2023-02-03T21:01:00.322Z,7.00
2023-02-03T21:03:45.790Z,7.00
2023-02-03T21:06:18.804Z,7.00
2023-02-03T21:08:47.916Z,7.00
2023-02-03T21:11:27.421Z,7.10
2023-02-03T21:13:54.600Z,7.10
2023-02-03T21:16:26.234Z,7.10
2023-02-03T21:18:54.288Z,7.00
2023-02-03T21:21:38.155Z,7.00
2023-02-03T21:24:32.942Z,7.10
2023-02-03T21:27:01.826Z,7.10
2023-02-03T21:29:34.174Z,7.10
2023-02-03T21:32:01.404Z,7.10
2023-02-03T21:34:28.795Z,7.10
2023-02-03T21:37:17.142Z,7.10
2023-02-03T21:39:44.241Z,7.10
2023-02-03T21:42:44.110Z,7.10
2023-02-03T21:45:17.617Z,7.10
2023-02-03T21:47:47.880Z,7.10
2023-02-03T21:50:32.043Z,7.20
2023-02-03T21:53:26.076Z,7.20
2023-02-03T21:55:54.714Z,7.20
2023-02-03T21:58:30.381Z,7.20
2023-02-03T22:00:59.890Z,7.20
2023-02-03T22:03:40.763Z,7.10
2023-02-03T22:06:24.047Z,7.10
2023-02-03T22:08:54.977Z,7.10
2023-02-03T22:11:27.734Z,7.10
2023-02-03T22:13:56.107Z,7.20
2023-02-03T22:16:23.753Z,7.20
2023-02-03T22:18:51.847Z,7.20
2023-02-03T22:21:19.423Z,7.30
2023-02-03T22:23:47.839Z,7.30
2023-02-03T22:26:16.318Z,7.20
2023-02-03T22:28:44.883Z,7.20
2023-02-03T22:31:13.217Z,7.20
2023-02-03T22:33:41.972Z,7.20
2023-02-03T22:36:10.779Z,7.20
2023-02-03T22:38:39.578Z,7.20
2023-02-03T22:41:08.049Z,7.30
2023-02-03T22:43:35.647Z,7.30
2023-02-03T22:46:02.757Z,7.20
2023-02-03T22:48:30.515Z,7.20
2023-02-03T22:50:58.948Z,7.20
2023-02-03T22:53:26.620Z,7.20
2023-02-03T22:55:53.840Z,7.30
2023-02-03T22:58:21.284Z,7.30
2023-02-03T23:00:48.422Z,7.30
2023-02-03T23:03:15.711Z,7.30
2023-02-03T23:05:43.932Z,7.30
2023-02-03T23:08:11.711Z,7.40
2023-02-03T23:10:38.781Z,7.30
2023-02-03T23:13:06.430Z,7.30
2023-02-03T23:15:33.602Z,7.30
2023-02-03T23:18:00.726Z,7.30
2023-02-03T23:20:28.132Z,7.30
2023-02-03T23:22:55.444Z,7.20
2023-02-03T23:25:22.570Z,7.20
2023-02-03T23:27:49.709Z,7.10
2023-02-03T23:30:17.092Z,7.10
2023-02-03T23:32:44.227Z,7.20
2023-02-03T23:35:30.387Z,7.20
2023-02-03T23:37:57.467Z,7.10
2023-02-03T23:40:24.614Z,7.10
2023-02-03T23:42:51.711Z,7.20
2023-02-03T23:45:19.489Z,7.20
2023-02-03T23:47:46.792Z,7.20
2023-02-03T23:50:17.088Z,7.20
2023-02-03T23:52:44.140Z,7.20
2023-02-03T23:55:15.776Z,7.10
2023-02-03T23:57:43.292Z,7.10
